Terminal Aerodrome Forecast
Issued by NWS

Home | Current Version | Previous Version | Text Only | Print | Product List | Glossary On
Versions: 1 2 3 4 5 6 7 8 9 10 11 12 13 14 15 16 17 18 19 20 21 22 23 24 25 26 27 28 29 30 31 32 33 34 35 36 37 38 39 40
000
FTPA31 PHFO 251100
TAFITO
TAF
PHTO 251121Z 2512/2612 24006KT P6SM SCT025 BKN045
     FM252000 04010KT P6SM FEW025 BKN050
     FM260400 24005KT P6SM SCT025 BKN045=

USA.gov is the U.S. government's official web portal to all federal, state and local government web resources and services.